Time;durP1;ratioP1;P1;durP2;ratioP2;P2;SDS_P1;SDS_P2;PMS_P1;PMS_P2;Temp;Humidity;BMP_temperature;BMP_pressure;BME280_temperature;BME280_humidity;BME280_pressure;Samples;Min_cycle;Max_cycle;Signal;HPM_P1;HPM_P2
2021/04/05 00:00:12;;;;;;;11.40;5.50;;;6.70;92.40;;;;;;5025171;28;20048;-73
2021/04/05 00:02:39;;;;;;;12.52;5.63;;;6.70;92.30;;;;;;5026232;28;20467;-73
2021/04/05 00:05:11;;;;;;;11.68;5.57;;;6.70;92.20;;;;;;5024453;28;20077;-73
2021/04/05 00:07:36;;;;;;;13.65;5.32;;;6.60;92.30;;;;;;5022683;28;20120;-72
2021/04/05 00:10:11;;;;;;;11.15;5.07;;;6.50;92.60;;;;;;5024747;28;20629;-73
2021/04/05 00:12:37;;;;;;;12.38;5.85;;;6.40;93.00;;;;;;5021021;28;20359;-73
2021/04/05 00:15:06;;;;;;;13.07;6.55;;;6.30;93.20;;;;;;5025129;28;20466;-73
2021/04/05 00:17:32;;;;;;;14.30;6.75;;;6.40;93.20;;;;;;5026489;28;20033;-78
2021/04/05 00:19:57;;;;;;;14.65;6.85;;;6.40;93.00;;;;;;5024771;28;20049;-73
2021/04/05 00:22:23;;;;;;;15.35;6.47;;;6.30;93.10;;;;;;5025811;28;20633;-73
2021/04/05 00:24:48;;;;;;;13.38;6.38;;;6.40;93.20;;;;;;5024433;28;20502;-73
2021/04/05 00:27:14;;;;;;;10.25;5.07;;;6.40;93.10;;;;;;5025352;28;20045;-73
2021/04/05 00:29:40;;;;;;;10.20;5.28;;;6.30;92.90;;;;;;5025581;28;20033;-73
2021/04/05 00:32:06;;;;;;;10.63;5.15;;;6.40;93.00;;;;;;5025118;28;20049;-78
2021/04/05 00:34:31;;;;;;;9.90;4.70;;;6.40;93.00;;;;;;5024829;28;20025;-73
2021/04/05 00:36:57;;;;;;;11.00;3.72;;;6.40;92.90;;;;;;5024372;28;20053;-73
2021/04/05 00:39:22;;;;;;;10.13;3.60;;;6.30;93.20;;;;;;5024563;28;20033;-73
2021/04/05 00:41:48;;;;;;;8.75;3.30;;;6.20;93.10;;;;;;5024401;28;20041;-72
2021/04/05 00:44:14;;;;;;;5.68;2.47;;;6.10;93.10;;;;;;5025297;28;20422;-73
2021/04/05 00:46:40;;;;;;;8.23;2.95;;;6.10;93.00;;;;;;5024902;28;20037;-73
2021/04/05 00:49:06;;;;;;;7.70;2.83;;;5.90;93.50;;;;;;5025994;28;20030;-73
2021/04/05 00:51:32;;;;;;;9.13;3.03;;;6.00;93.60;;;;;;5024278;28;20513;-73
2021/04/05 00:53:58;;;;;;;8.70;3.20;;;5.90;93.70;;;;;;5027475;28;20036;-73
2021/04/05 00:56:26;;;;;;;8.63;3.50;;;5.90;93.70;;;;;;5027493;28;20033;-79
2021/04/05 00:58:53;;;;;;;9.88;3.47;;;5.90;93.70;;;;;;5028674;28;20037;-73
2021/04/05 01:01:25;;;;;;;6.20;3.22;;;5.90;93.60;;;;;;5027680;28;20115;-78
2021/04/05 01:03:52;;;;;;;9.85;3.78;;;6.00;93.80;;;;;;5030271;28;20044;-72
2021/04/05 01:06:31;;;;;;;8.07;3.25;;;6.00;93.70;;;;;;5027939;28;20132;-78
2021/04/05 01:08:57;;;;;;;9.07;3.40;;;6.00;93.90;;;;;;5026334;28;20033;-73
2021/04/05 01:11:28;;;;;;;8.35;3.55;;;6.00;93.70;;;;;;5026719;28;20565;-73
2021/04/05 01:13:55;;;;;;;9.93;3.60;;;5.90;93.70;;;;;;5025680;28;20037;-73
2021/04/05 01:16:25;;;;;;;7.82;3.33;;;6.00;93.60;;;;;;5027228;28;20479;-78
2021/04/05 01:18:50;;;;;;;10.43;3.38;;;5.90;93.70;;;;;;5026048;28;20096;-73
2021/04/05 01:21:16;;;;;;;7.47;3.80;;;5.90;94.00;;;;;;5028221;28;20120;-73
2021/04/05 01:23:42;;;;;;;8.50;4.15;;;5.90;94.00;;;;;;5029252;28;20117;-73
2021/04/05 01:26:08;;;;;;;10.70;4.20;;;5.80;94.00;;;;;;5025226;28;20029;-73
2021/04/05 01:28:33;;;;;;;9.80;4.20;;;5.90;93.90;;;;;;5027076;28;20083;-73
2021/04/05 01:31:02;;;;;;;7.32;3.70;;;5.90;93.80;;;;;;5029150;28;20026;-73
2021/04/05 01:33:30;;;;;;;9.52;4.25;;;5.90;93.90;;;;;;5028953;28;20029;-73
2021/04/05 01:36:00;;;;;;;11.02;4.43;;;5.90;93.80;;;;;;5029369;28;20473;-74
2021/04/05 01:38:32;;;;;;;10.50;4.47;;;5.90;94.00;;;;;;5028033;28;20490;-73
2021/04/05 01:41:08;;;;;;;8.30;3.47;;;5.90;94.10;;;;;;5028751;28;20032;-73
2021/04/05 01:43:34;;;;;;;10.90;3.92;;;5.90;94.00;;;;;;5025387;28;20056;-73
2021/04/05 01:46:01;;;;;;;8.55;4.38;;;5.80;94.30;;;;;;5028164;28;20033;-72
2021/04/05 01:48:28;;;;;;;12.80;4.90;;;5.70;94.70;;;;;;5024028;28;20059;-78
2021/04/05 01:51:22;;;;;;;9.95;4.90;;;5.60;94.90;;;;;;5028856;28;20155;-78
2021/04/05 01:53:49;;;;;;;9.32;4.53;;;5.60;94.80;;;;;;5026060;28;20422;-73
2021/04/05 01:56:17;;;;;;;9.05;4.40;;;5.70;94.70;;;;;;5025041;28;20018;-73
2021/04/05 01:58:45;;;;;;;9.05;4.43;;;5.70;94.70;;;;;;5026499;28;20040;-73
2021/04/05 02:01:13;;;;;;;9.60;4.10;;;5.70;94.50;;;;;;5028337;28;20018;-73
2021/04/05 02:03:39;;;;;;;8.55;4.30;;;5.60;94.80;;;;;;5027102;28;20064;-72
2021/04/05 02:06:18;;;;;;;7.88;4.25;;;5.50;95.30;;;;;;5028055;28;20033;-73
2021/04/05 02:08:44;;;;;;;10.07;4.25;;;5.40;95.40;;;;;;5019545;28;20041;-72
2021/04/05 02:11:13;;;;;;;8.82;3.38;;;5.40;95.40;;;;;;5027303;28;20037;-72
2021/04/05 02:13:40;;;;;;;8.07;3.83;;;5.50;95.20;;;;;;5026456;28;20072;-73
2021/04/05 02:16:06;;;;;;;11.90;4.43;;;5.40;95.10;;;;;;5028590;28;20410;-78
2021/04/05 02:18:32;;;;;;;8.35;4.15;;;5.40;95.10;;;;;;5026621;28;20031;-72
2021/04/05 02:20:58;;;;;;;8.52;4.13;;;5.50;95.20;;;;;;5028719;28;20057;-73
2021/04/05 02:23:25;;;;;;;10.07;3.63;;;5.40;95.20;;;;;;5028073;28;20051;-72
2021/04/05 02:26:08;;;;;;;6.85;3.60;;;5.40;95.50;;;;;;5027932;28;20132;-73
2021/04/05 02:28:46;;;;;;;8.35;3.60;;;5.40;95.60;;;;;;5024958;28;20490;-78
2021/04/05 02:31:14;;;;;;;9.88;3.42;;;5.40;95.60;;;;;;5024857;28;20319;-73
2021/04/05 02:33:45;;;;;;;7.53;2.65;;;5.40;95.60;;;;;;5027317;28;20026;-78
2021/04/05 02:36:14;;;;;;;7.82;2.97;;;5.30;95.80;;;;;;5027497;28;20155;-73
2021/04/05 02:38:42;;;;;;;8.88;2.67;;;5.20;96.00;;;;;;5026987;28;20043;-73
2021/04/05 02:41:08;;;;;;;8.02;3.10;;;5.20;95.90;;;;;;5026728;28;20038;-73
2021/04/05 02:43:36;;;;;;;8.45;5.07;;;5.10;96.40;;;;;;5027266;28;20075;-78
2021/04/05 02:46:03;;;;;;;8.90;3.67;;;5.20;96.00;;;;;;5026014;28;20057;-73
2021/04/05 02:48:31;;;;;;;13.90;3.38;;;5.20;95.90;;;;;;5026768;28;20388;-73
2021/04/05 02:51:01;;;;;;;15.05;3.80;;;5.20;95.90;;;;;;5027081;28;20378;-78
2021/04/05 02:53:27;;;;;;;9.73;3.15;;;5.30;96.10;;;;;;5026789;28;20041;-72
2021/04/05 02:55:53;;;;;;;7.90;3.00;;;5.30;96.10;;;;;;5022786;28;20033;-73
2021/04/05 02:58:19;;;;;;;7.38;3.10;;;5.30;96.10;;;;;;5027350;28;20403;-72
2021/04/05 03:00:45;;;;;;;7.60;3.08;;;5.20;96.30;;;;;;5025997;28;20029;-72
2021/04/05 03:03:11;;;;;;;8.50;2.60;;;5.20;96.20;;;;;;5023002;28;20071;-72
2021/04/05 03:05:38;;;;;;;10.05;3.38;;;5.20;96.30;;;;;;5026424;28;20132;-73
2021/04/05 03:08:04;;;;;;;5.53;2.78;;;5.10;96.50;;;;;;5026888;28;20060;-78
2021/04/05 03:10:35;;;;;;;12.70;3.78;;;5.10;96.20;;;;;;5027621;28;20128;-72
2021/04/05 03:13:02;;;;;;;10.45;4.07;;;5.10;96.60;;;;;;5025376;28;20041;-73
2021/04/05 03:15:28;;;;;;;15.20;4.35;;;5.00;96.80;;;;;;5025628;28;20067;-73
2021/04/05 03:18:01;;;;;;;9.48;2.95;;;5.10;96.50;;;;;;5021994;28;20034;-73
2021/04/05 03:20:34;;;;;;;7.32;3.15;;;5.10;96.60;;;;;;5027201;28;20045;-73
2021/04/05 03:23:01;;;;;;;8.38;3.08;;;5.00;96.70;;;;;;5023006;28;20100;-73
2021/04/05 03:25:28;;;;;;;8.20;3.17;;;5.00;96.80;;;;;;5027341;28;20633;-72
2021/04/05 03:27:54;;;;;;;5.35;2.38;;;5.00;96.70;;;;;;5026104;28;20111;-73
2021/04/05 03:30:25;;;;;;;7.88;3.10;;;5.10;96.60;;;;;;5024505;28;20558;-73
2021/04/05 03:33:04;;;;;;;7.72;2.60;;;5.00;97.00;;;;;;5026086;28;20552;-72
2021/04/05 03:35:36;;;;;;;7.90;3.10;;;4.90;96.80;;;;;;5025341;28;20033;-72
2021/04/05 03:38:02;;;;;;;6.43;2.92;;;4.90;96.70;;;;;;5026801;28;20051;-77
2021/04/05 03:40:29;;;;;;;10.48;3.08;;;4.90;96.90;;;;;;5025115;28;20082;-72
2021/04/05 03:43:07;;;;;;;13.52;5.97;;;4.90;97.10;;;;;;5024115;28;20124;-72
2021/04/05 03:45:56;;;;;;;11.93;5.68;;;4.60;97.50;;;;;;5022703;28;20031;-72
2021/04/05 03:48:25;;;;;;;10.45;5.22;;;4.70;97.40;;;;;;5025101;28;20029;-78
2021/04/05 03:51:09;;;;;;;13.38;6.78;;;4.70;97.30;;;;;;5025326;28;20033;-72
2021/04/05 03:53:34;;;;;;;12.48;5.18;;;4.80;97.20;;;;;;5025853;28;20069;-72
2021/04/05 03:56:06;;;;;;;10.10;4.68;;;4.80;97.70;;;;;;5025188;28;20061;-72
2021/04/05 03:58:33;;;;;;;12.20;5.00;;;4.80;97.60;;;;;;5025926;28;20032;-72
2021/04/05 04:01:06;;;;;;;11.45;4.03;;;4.70;97.60;;;;;;5024801;28;20036;-73
2021/04/05 04:03:46;;;;;;;8.57;3.42;;;4.70;97.80;;;;;;5024810;28;20037;-72
2021/04/05 04:06:15;;;;;;;22.40;4.30;;;4.70;97.80;;;;;;5021998;28;20108;-72
2021/04/05 04:08:45;;;;;;;16.73;3.97;;;4.60;98.20;;;;;;5024826;28;20071;-73
2021/04/05 04:11:14;;;;;;;14.13;4.50;;;4.70;98.30;;;;;;5025984;28;20485;-78
2021/04/05 04:13:43;;;;;;;9.45;3.95;;;4.80;98.40;;;;;;5025580;28;20033;-72
2021/04/05 04:16:11;;;;;;;7.93;3.67;;;4.60;98.50;;;;;;5025357;28;20040;-74
2021/04/05 04:18:37;;;;;;;7.60;3.63;;;4.70;98.60;;;;;;5023005;28;20382;-72
2021/04/05 04:21:07;;;;;;;8.38;3.63;;;4.80;98.40;;;;;;5026273;28;20053;-73
2021/04/05 04:23:33;;;;;;;11.02;4.18;;;4.80;98.20;;;;;;5024990;28;20487;-72
2021/04/05 04:25:59;;;;;;;9.27;3.65;;;4.70;98.30;;;;;;5025003;28;20474;-73
2021/04/05 04:28:25;;;;;;;8.93;3.22;;;4.70;98.20;;;;;;5025198;28;20037;-72
2021/04/05 04:30:58;;;;;;;7.50;3.05;;;4.70;98.70;;;;;;5025754;28;20471;-72
2021/04/05 04:33:29;;;;;;;8.55;3.17;;;4.80;98.80;;;;;;5024542;28;20041;-73
2021/04/05 04:35:55;;;;;;;7.60;2.90;;;4.90;98.50;;;;;;5026661;28;20029;-72
2021/04/05 04:38:25;;;;;;;6.68;3.08;;;4.90;98.30;;;;;;5025037;28;20049;-72
2021/04/05 04:40:51;;;;;;;6.97;2.58;;;4.80;98.30;;;;;;5022037;28;20121;-78
2021/04/05 04:43:17;;;;;;;7.75;2.67;;;4.60;98.80;;;;;;5022166;28;20068;-78
2021/04/05 04:45:43;;;;;;;5.18;2.60;;;4.90;98.90;;;;;;5024194;28;20033;-73
2021/04/05 04:48:10;;;;;;;6.68;2.78;;;5.00;98.60;;;;;;5025074;28;20485;-73
2021/04/05 04:50:36;;;;;;;8.25;2.63;;;5.00;98.40;;;;;;5024906;28;20402;-73
2021/04/05 04:53:02;;;;;;;8.13;3.22;;;5.10;98.10;;;;;;5024859;28;20122;-73
2021/04/05 04:55:28;;;;;;;6.47;2.72;;;5.00;97.90;;;;;;5024175;28;20030;-78
2021/04/05 04:57:58;;;;;;;7.80;2.97;;;5.00;98.00;;;;;;5020516;28;20095;-72
2021/04/05 05:00:26;;;;;;;9.50;2.63;;;5.10;98.00;;;;;;5024618;28;20034;-73
2021/04/05 05:02:52;;;;;;;7.75;3.20;;;5.00;97.90;;;;;;5024888;28;20037;-78
2021/04/05 05:05:21;;;;;;;5.93;2.72;;;5.00;98.10;;;;;;5024413;28;20037;-72
2021/04/05 05:07:47;;;;;;;8.13;2.97;;;4.90;98.10;;;;;;5024145;28;20045;-72
2021/04/05 05:10:14;;;;;;;7.20;2.35;;;4.90;98.50;;;;;;5024437;28;20029;-72
2021/04/05 05:12:41;;;;;;;7.47;2.85;;;4.80;98.90;;;;;;5024234;28;20577;-73
2021/04/05 05:15:11;;;;;;;10.27;2.80;;;4.70;98.80;;;;;;5024623;28;20087;-73
2021/04/05 05:17:48;;;;;;;9.38;3.58;;;4.80;98.70;;;;;;5021226;28;20491;-72
2021/04/05 05:20:15;;;;;;;6.45;2.83;;;4.90;98.80;;;;;;5025374;28;20573;-73
2021/04/05 05:23:01;;;;;;;8.23;2.60;;;5.00;98.60;;;;;;5024782;28;20052;-72
2021/04/05 05:25:27;;;;;;;9.50;2.80;;;4.90;98.40;;;;;;5021882;28;20626;-72
2021/04/05 05:28:04;;;;;;;6.22;2.92;;;5.00;98.30;;;;;;5024730;28;20041;-73
2021/04/05 05:30:31;;;;;;;7.80;3.15;;;5.00;98.30;;;;;;5025753;28;20052;-73
2021/04/05 05:33:00;;;;;;;7.63;2.50;;;5.00;98.40;;;;;;5024399;28;20522;-72
2021/04/05 05:35:26;;;;;;;10.57;3.50;;;4.90;98.50;;;;;;5025778;28;20060;-73
2021/04/05 05:37:52;;;;;;;10.65;3.05;;;4.90;98.60;;;;;;5020529;28;20040;-78
2021/04/05 05:40:22;;;;;;;7.72;3.35;;;4.90;98.70;;;;;;5026342;28;20087;-72
2021/04/05 05:43:19;;;;;;;7.72;3.00;;;4.90;98.70;;;;;;5026922;28;20478;-73
2021/04/05 05:46:04;;;;;;;5.85;2.97;;;5.00;98.70;;;;;;5026541;28;20064;-73
2021/04/05 05:48:51;;;;;;;6.45;2.78;;;5.10;98.50;;;;;;5026892;28;20530;-73
2021/04/05 05:51:48;;;;;;;13.90;3.58;;;5.20;98.50;;;;;;5027040;28;20033;-72
2021/04/05 05:54:33;;;;;;;10.10;2.90;;;5.20;98.20;;;;;;5026962;28;20040;-73
2021/04/05 05:57:47;;;;;;;13.10;3.45;;;5.20;98.10;;;;;;5026133;28;20481;-73
2021/04/05 06:00:35;;;;;;;10.25;3.17;;;5.30;98.20;;;;;;5022091;28;20497;-72
2021/04/05 06:03:42;;;;;;;11.13;3.35;;;5.30;98.20;;;;;;5024862;28;20498;-78
2021/04/05 06:06:13;;;;;;;8.27;3.42;;;5.40;98.30;;;;;;4988135;28;20061;-78
2021/04/05 06:08:56;;;;;;;8.23;3.43;;;5.30;98.30;;;;;;5029273;28;20040;-73
2021/04/05 06:11:35;;;;;;;8.88;3.55;;;5.40;98.20;;;;;;5018457;28;20042;-73
2021/04/05 06:14:01;;;;;;;6.93;3.40;;;5.30;98.50;;;;;;5026083;28;20251;-73
2021/04/05 06:16:54;;;;;;;7.07;3.13;;;5.40;98.30;;;;;;5025100;28;20279;-73
2021/04/05 06:19:45;;;;;;;8.05;3.40;;;5.50;98.10;;;;;;5027030;28;20447;-78
2021/04/05 06:22:19;;;;;;;7.32;3.17;;;5.70;98.30;;;;;;5025763;28;20556;-78
2021/04/05 06:25:14;;;;;;;8.80;3.00;;;5.80;98.00;;;;;;5028299;28;20622;-72
2021/04/05 06:28:08;;;;;;;8.60;3.00;;;6.00;97.50;;;;;;4984846;28;20087;-73
2021/04/05 06:30:53;;;;;;;6.40;3.35;;;6.20;97.20;;;;;;5022579;28;20022;-73
2021/04/05 06:33:32;;;;;;;8.18;3.40;;;6.30;96.80;;;;;;5019850;28;20141;-72
2021/04/05 06:36:21;;;;;;;9.50;3.67;;;6.50;97.00;;;;;;5025900;28;20108;-73
2021/04/05 06:38:54;;;;;;;9.48;4.35;;;6.60;97.30;;;;;;5017709;28;20069;-73
2021/04/05 06:41:37;;;;;;;7.32;3.65;;;6.80;97.00;;;;;;5026516;28;20340;-78
2021/04/05 06:44:22;;;;;;;7.45;3.47;;;7.10;96.80;;;;;;5028366;28;20045;-73
2021/04/05 06:47:35;;;;;;;8.73;3.53;;;7.50;96.20;;;;;;5024571;28;20056;-73
2021/04/05 06:50:31;;;;;;;8.43;3.22;;;7.80;96.00;;;;;;5025210;28;20493;-78
2021/04/05 06:53:18;;;;;;;20.73;3.55;;;8.10;95.30;;;;;;5024146;28;20057;-73
2021/04/05 06:56:02;;;;;;;15.55;3.90;;;8.20;94.20;;;;;;5026137;28;20038;-75
2021/04/05 06:58:55;;;;;;;6.93;2.28;;;8.40;93.70;;;;;;5024197;28;20516;-73
2021/04/05 07:01:42;;;;;;;8.38;3.58;;;8.40;93.50;;;;;;5024662;28;20549;-73
2021/04/05 07:04:37;;;;;;;7.15;3.05;;;8.30;93.30;;;;;;5026140;28;20033;-78
2021/04/05 07:07:18;;;;;;;7.22;2.88;;;8.30;93.30;;;;;;5025419;28;20252;-73
2021/04/05 07:09:47;;;;;;;8.80;3.00;;;8.70;93.00;;;;;;5025705;28;20044;-73
2021/04/05 07:12:27;;;;;;;5.93;2.85;;;8.80;93.30;;;;;;5025258;28;20045;-73
2021/04/05 07:15:17;;;;;;;5.72;2.78;;;9.30;92.20;;;;;;5026014;28;20064;-72
2021/04/05 07:18:19;;;;;;;7.97;2.70;;;9.60;92.00;;;;;;5023915;28;20422;-73
2021/04/05 07:21:01;;;;;;;7.22;2.50;;;9.80;91.10;;;;;;5023075;28;20047;-73
2021/04/05 07:24:01;;;;;;;4.85;2.45;;;9.90;91.00;;;;;;5024530;28;20048;-73
2021/04/05 07:26:36;;;;;;;5.45;2.38;;;9.60;90.80;;;;;;5022374;28;20041;-73
2021/04/05 07:29:07;;;;;;;4.68;2.10;;;9.80;90.70;;;;;;5025784;28;20029;-73
2021/04/05 07:32:01;;;;;;;7.93;2.58;;;9.80;90.20;;;;;;5024022;28;20124;-73
2021/04/05 07:34:45;;;;;;;9.35;2.58;;;9.70;90.50;;;;;;5022446;28;20068;-78
2021/04/05 07:37:29;;;;;;;8.00;2.80;;;10.10;90.30;;;;;;5019295;28;20033;-78
2021/04/05 07:40:20;;;;;;;6.95;2.85;;;10.40;89.50;;;;;;5018218;28;20060;-73
2021/04/05 07:42:47;;;;;;;10.43;3.15;;;10.60;88.70;;;;;;5024930;28;20445;-73
2021/04/05 07:45:29;;;;;;;7.25;2.80;;;10.90;87.80;;;;;;5018091;28;20091;-72
2021/04/05 07:48:06;;;;;;;8.68;2.90;;;11.00;87.60;;;;;;5027065;28;20037;-73
2021/04/05 07:50:58;;;;;;;7.70;2.88;;;11.00;87.20;;;;;;5021089;28;20061;-73
2021/04/05 07:53:51;;;;;;;5.60;2.57;;;11.20;87.00;;;;;;5024108;28;20041;-73
2021/04/05 07:57:14;;;;;;;6.65;3.08;;;11.50;86.10;;;;;;5026035;28;20351;-73
2021/04/05 08:00:04;;;;;;;8.75;3.25;;;11.70;85.50;;;;;;4963812;28;20109;-78
2021/04/05 08:02:38;;;;;;;7.80;2.50;;;11.70;85.10;;;;;;4967637;28;20047;-78
2021/04/05 08:05:35;;;;;;;6.35;2.20;;;11.90;83.90;;;;;;5014466;28;20042;-73
2021/04/05 08:08:12;;;;;;;6.13;2.50;;;12.00;81.70;;;;;;5025851;28;20075;-73
2021/04/05 08:10:49;;;;;;;7.25;2.08;;;12.20;83.10;;;;;;5022563;28;20040;-73
2021/04/05 08:13:35;;;;;;;7.88;2.50;;;12.00;81.60;;;;;;5027275;28;20044;-73
2021/04/05 08:16:04;;;;;;;6.25;2.20;;;12.00;82.30;;;;;;5025959;28;20032;-73
2021/04/05 08:18:41;;;;;;;7.15;2.13;;;11.40;83.20;;;;;;5023082;28;20026;-73
2021/04/05 08:21:12;;;;;;;7.90;2.97;;;11.00;84.20;;;;;;5020901;28;20049;-73
2021/04/05 08:23:56;;;;;;;6.72;2.30;;;11.10;83.90;;;;;;5022019;28;20042;-73
2021/04/05 08:27:06;;;;;;;8.05;2.75;;;11.30;84.60;;;;;;5024517;28;20565;-78
2021/04/05 08:29:47;;;;;;;5.75;2.20;;;11.50;82.90;;;;;;4991661;28;20077;-73
2021/04/05 08:32:44;;;;;;;4.95;2.40;;;11.50;83.80;;;;;;5025214;28;20041;-73
2021/04/05 08:35:39;;;;;;;5.93;2.25;;;11.70;82.40;;;;;;5026716;28;20107;-73
2021/04/05 08:38:36;;;;;;;7.03;2.50;;;11.50;81.90;;;;;;5013528;28;20045;-79
2021/04/05 08:41:26;;;;;;;7.28;2.40;;;11.80;82.10;;;;;;5024929;28;20112;-73
2021/04/05 08:44:11;;;;;;;6.15;2.03;;;12.10;81.00;;;;;;5026492;28;20144;-73
2021/04/05 08:46:37;;;;;;;10.93;2.70;;;12.40;80.60;;;;;;5023169;28;20041;-73
2021/04/05 08:49:10;;;;;;;9.43;2.97;;;12.40;79.60;;;;;;5019350;28;20275;-73
2021/04/05 08:51:53;;;;;;;13.82;3.08;;;12.60;79.70;;;;;;5025358;28;20166;-78
2021/04/05 08:54:22;;;;;;;6.90;2.92;;;12.90;79.40;;;;;;5023677;28;20555;-73
2021/04/05 08:56:54;;;;;;;7.40;2.15;;;12.90;78.60;;;;;;5024697;28;20044;-73
2021/04/05 08:59:30;;;;;;;;;;;13.20;78.10;;;;;;5025933;28;20048;-73
2021/04/05 09:02:18;;;;;;;6.63;2.38;;;13.30;76.80;;;;;;5025934;28;19917;-73
2021/04/05 09:04:46;;;;;;;4.95;2.42;;;13.00;76.70;;;;;;5025446;28;20387;-73
2021/04/05 09:07:31;;;;;;;8.23;2.65;;;12.70;78.90;;;;;;5023048;28;20037;-73
2021/04/05 09:10:04;;;;;;;7.10;2.80;;;12.60;79.40;;;;;;5026387;28;20029;-73
2021/04/05 09:12:33;;;;;;;6.93;2.35;;;12.70;77.40;;;;;;5025763;28;20029;-73
2021/04/05 09:15:27;;;;;;;6.75;2.67;;;12.70;78.50;;;;;;5026877;28;20061;-74
2021/04/05 09:18:23;;;;;;;9.35;2.80;;;13.30;77.10;;;;;;5027794;28;20033;-73
2021/04/05 09:21:12;;;;;;;6.03;2.60;;;13.60;77.40;;;;;;5028863;28;20046;-73
2021/04/05 09:24:07;;;;;;;7.97;2.40;;;13.40;76.20;;;;;;5028177;28;20072;-73
2021/04/05 09:27:13;;;;;;;11.00;3.05;;;13.70;75.70;;;;;;5022549;28;20060;-73
2021/04/05 09:30:03;;;;;;;8.27;2.45;;;13.50;75.60;;;;;;5029901;28;20033;-73
2021/04/05 09:32:41;;;;;;;6.07;2.47;;;13.50;74.60;;;;;;5027759;28;20045;-73
2021/04/05 09:35:30;;;;;;;7.75;2.55;;;13.40;76.70;;;;;;5028281;28;20546;-73
2021/04/05 09:38:18;;;;;;;5.40;2.45;;;13.70;75.40;;;;;;5028234;28;20021;-73
2021/04/05 09:40:52;;;;;;;5.35;2.17;;;13.80;72.70;;;;;;5027835;28;20499;-73
2021/04/05 09:43:32;;;;;;;5.55;2.20;;;14.10;72.40;;;;;;5028253;28;20093;-73
2021/04/05 09:46:23;;;;;;;6.60;2.20;;;14.30;72.20;;;;;;5028014;28;20359;-73
2021/04/05 09:49:16;;;;;;;6.53;2.22;;;14.30;70.30;;;;;;5027022;28;20037;-73
2021/04/05 09:52:12;;;;;;;8.23;2.30;;;14.30;71.00;;;;;;5025946;28;20041;-73
2021/04/05 09:55:01;;;;;;;5.82;1.73;;;14.60;67.70;;;;;;5024681;28;20040;-73
2021/04/05 09:57:54;;;;;;;8.15;2.13;;;14.90;67.90;;;;;;5028171;28;20040;-74
2021/04/05 10:00:21;;;;;;;5.15;2.45;;;15.40;67.60;;;;;;5027284;28;20033;-73
2021/04/05 10:02:58;;;;;;;9.13;2.13;;;15.20;64.00;;;;;;5028758;28;20038;-73
2021/04/05 10:05:25;;;;;;;6.85;1.77;;;14.70;62.90;;;;;;5027937;28;20061;-73
2021/04/05 10:07:54;;;;;;;5.85;1.70;;;15.40;63.70;;;;;;5026881;28;20042;-73
2021/04/05 10:10:23;;;;;;;4.95;1.83;;;15.80;63.60;;;;;;5025193;28;20441;-73
2021/04/05 10:12:50;;;;;;;5.43;1.33;;;15.40;62.10;;;;;;5028864;28;20040;-73
2021/04/05 10:15:22;;;;;;;12.48;2.00;;;15.00;61.60;;;;;;5032865;28;20116;-73
2021/04/05 10:17:51;;;;;;;;;;;14.80;61.60;;;;;;5031820;28;20033;-73
2021/04/05 10:20:22;;;;;;;6.10;1.80;;;15.50;62.00;;;;;;5029752;28;19921;-74
2021/04/05 10:22:49;;;;;;;4.82;1.83;;;15.30;59.40;;;;;;5031756;28;20033;-77
2021/04/05 10:25:20;;;;;;;3.75;1.50;;;14.70;60.90;;;;;;5031420;28;20389;-73
2021/04/05 10:27:48;;;;;;;5.25;1.88;;;14.90;60.60;;;;;;5026579;28;20041;-73
2021/04/05 10:30:15;;;;;;;7.03;1.92;;;15.30;60.70;;;;;;5027840;28;20219;-73
2021/04/05 10:32:42;;;;;;;5.97;2.17;;;15.80;62.20;;;;;;5022693;28;20107;-73
2021/04/05 10:35:11;;;;;;;5.43;2.08;;;16.10;61.30;;;;;;5027622;28;20121;-73
2021/04/05 10:37:46;;;;;;;5.28;1.70;;;16.20;60.60;;;;;;5023155;28;20426;-73
2021/04/05 10:40:15;;;;;;;5.43;1.88;;;16.20;61.10;;;;;;5028805;23;20054;-74
2021/04/05 10:42:50;;;;;;;9.02;2.30;;;15.60;59.80;;;;;;4995977;28;20030;-73
2021/04/05 10:45:27;;;;;;;5.63;1.75;;;15.40;61.20;;;;;;4995788;28;20551;-73
2021/04/05 10:47:53;;;;;;;4.20;1.50;;;15.60;61.10;;;;;;5001942;28;20034;-73
2021/04/05 10:50:26;;;;;;;5.60;1.83;;;15.60;59.50;;;;;;4997276;28;20084;-73
2021/04/05 10:52:54;;;;;;;7.15;2.13;;;15.70;60.30;;;;;;4997589;28;20041;-74
2021/04/05 10:55:25;;;;;;;4.32;1.83;;;15.90;62.00;;;;;;4998119;28;20037;-73
2021/04/05 10:57:57;;;;;;;7.57;2.03;;;16.10;60.40;;;;;;5000569;28;20072;-73
2021/04/05 11:00:31;;;;;;;7.50;2.05;;;16.30;59.60;;;;;;4997615;28;20036;-73
2021/04/05 11:03:19;;;;;;;4.65;1.60;;;16.50;59.50;;;;;;5001368;28;20100;-73
2021/04/05 11:05:49;;;;;;;8.73;2.17;;;16.90;57.80;;;;;;5001254;28;20058;-74
2021/04/05 11:08:21;;;;;;;6.70;1.48;;;16.80;59.30;;;;;;4998007;28;20170;-73
2021/04/05 11:10:49;;;;;;;6.30;1.90;;;16.90;57.10;;;;;;4996674;28;20032;-73
2021/04/05 11:13:21;;;;;;;6.40;1.60;;;17.10;58.10;;;;;;4991298;28;20030;-74
2021/04/05 11:15:47;;;;;;;10.52;1.73;;;17.50;56.80;;;;;;4997702;28;20031;-73
2021/04/05 11:18:16;;;;;;;8.38;2.35;;;17.50;56.10;;;;;;4996429;28;20052;-78
2021/04/05 11:20:44;;;;;;;4.55;1.60;;;17.50;55.70;;;;;;5001581;28;20022;-73
2021/04/05 11:23:13;;;;;;;5.72;1.65;;;17.10;57.50;;;;;;4997279;28;20033;-74
2021/04/05 11:25:42;;;;;;;6.47;1.65;;;17.10;57.50;;;;;;4995686;28;20031;-73
2021/04/05 11:28:18;;;;;;;5.07;1.60;;;17.10;55.80;;;;;;4995402;28;20068;-78
2021/04/05 11:30:48;;;;;;;5.07;1.95;;;17.50;55.70;;;;;;4996821;28;20424;-73
2021/04/05 11:33:16;;;;;;;6.63;2.05;;;17.70;55.50;;;;;;4998950;28;20416;-73
2021/04/05 11:35:44;;;;;;;4.35;1.75;;;17.80;54.30;;;;;;5001252;28;20085;-73
2021/04/05 11:38:18;;;;;;;5.43;1.70;;;17.00;54.90;;;;;;4999430;28;20022;-73
2021/04/05 11:40:47;;;;;;;5.00;1.67;;;16.80;55.50;;;;;;4991888;28;20184;-78
2021/04/05 11:43:22;;;;;;;6.28;1.92;;;17.30;54.80;;;;;;4979835;28;20074;-73
2021/04/05 11:45:52;;;;;;;5.75;1.63;;;16.90;54.20;;;;;;4982314;28;20074;-73
2021/04/05 11:48:20;;;;;;;5.88;2.00;;;16.70;53.90;;;;;;4978818;28;20486;-73
2021/04/05 11:50:50;;;;;;;4.05;1.42;;;17.10;56.30;;;;;;4978112;28;20045;-73
2021/04/05 11:53:47;;;;;;;5.10;1.70;;;17.10;55.90;;;;;;4978159;28;20096;-78
2021/04/05 11:56:16;;;;;;;8.68;1.65;;;17.40;55.10;;;;;;4983376;28;20059;-77
2021/04/05 11:58:44;;;;;;;7.13;1.80;;;17.20;53.40;;;;;;4996701;28;20497;-74
2021/04/05 12:01:18;;;;;;;4.25;1.27;;;17.50;54.70;;;;;;4980490;28;20034;-73
2021/04/05 12:04:17;;;;;;;6.90;1.40;;;17.70;53.70;;;;;;4980728;28;20121;-73
2021/04/05 12:07:15;;;;;;;4.68;1.38;;;17.60;53.20;;;;;;4973816;28;20065;-73
2021/04/05 12:09:46;;;;;;;7.15;1.77;;;17.50;53.00;;;;;;4975808;28;20051;-73
2021/04/05 12:12:19;;;;;;;4.15;1.52;;;17.40;55.50;;;;;;4977023;28;20026;-73
2021/04/05 12:14:52;;;;;;;5.38;1.40;;;17.60;53.90;;;;;;4978957;28;20045;-73
2021/04/05 12:17:21;;;;;;;16.45;2.22;;;17.90;55.20;;;;;;4974420;28;20105;-74
2021/04/05 12:19:49;;;;;;;7.45;2.20;;;17.70;54.40;;;;;;4976084;28;20038;-73
2021/04/05 12:22:18;;;;;;;5.05;1.63;;;17.80;55.50;;;;;;4976796;28;20133;-73
2021/04/05 12:24:51;;;;;;;6.57;1.58;;;18.20;55.60;;;;;;4977170;28;20396;-73
2021/04/05 12:27:17;;;;;;;5.35;1.77;;;18.30;54.90;;;;;;4977484;28;20054;-78
2021/04/05 12:29:44;;;;;;;6.40;1.33;;;18.30;53.70;;;;;;4977402;28;20045;-73
2021/04/05 12:32:18;;;;;;;4.68;1.40;;;18.60;54.90;;;;;;4976063;28;20411;-73
2021/04/05 12:34:47;;;;;;;6.57;1.90;;;18.50;53.80;;;;;;4974682;28;20026;-73
2021/04/05 12:37:17;;;;;;;5.50;1.75;;;18.30;53.70;;;;;;4977946;28;20042;-73
2021/04/05 12:39:49;;;;;;;6.32;1.75;;;18.30;53.10;;;;;;4979847;28;20068;-73
2021/04/05 12:42:15;;;;;;;;;;;18.20;53.20;;;;;;4976469;28;20034;-73
2021/04/05 12:44:44;;;;;;;5.32;1.55;;;18.10;52.20;;;;;;4977459;28;19926;-73
2021/04/05 12:47:12;;;;;;;4.78;1.60;;;18.20;52.60;;;;;;4976041;28;20038;-78
2021/04/05 12:49:43;;;;;;;6.47;1.30;;;18.20;52.10;;;;;;4977901;28;20087;-73
2021/04/05 12:52:14;;;;;;;5.15;1.23;;;18.00;51.70;;;;;;4970635;28;20092;-74
2021/04/05 12:54:45;;;;;;;6.22;1.60;;;18.20;51.70;;;;;;4975010;28;20042;-73
2021/04/05 12:57:11;;;;;;;7.88;1.25;;;18.20;51.30;;;;;;4976214;28;20034;-74
2021/04/05 12:59:38;;;;;;;8.05;1.38;;;18.30;50.60;;;;;;4971138;28;20038;-73
2021/04/05 13:02:16;;;;;;;3.83;1.00;;;18.30;49.50;;;;;;4976664;28;20031;-73
2021/04/05 13:04:51;;;;;;;4.75;1.08;;;18.30;49.80;;;;;;4979995;28;20035;-73
2021/04/05 13:07:24;;;;;;;4.05;0.90;;;17.80;49.30;;;;;;4975293;28;20080;-73
2021/04/05 13:09:59;;;;;;;6.60;1.13;;;17.70;49.70;;;;;;4974172;28;20066;-78
2021/04/05 13:12:47;;;;;;;3.85;1.25;;;17.70;48.70;;;;;;4974201;28;20038;-73
2021/04/05 13:15:19;;;;;;;1.63;0.70;;;17.80;49.00;;;;;;4974979;28;20027;-78
2021/04/05 13:17:51;;;;;;;3.13;1.00;;;17.80;48.40;;;;;;4980669;28;20026;-74
2021/04/05 13:20:21;;;;;;;3.47;0.90;;;17.90;50.00;;;;;;4980129;28;20033;-74
2021/04/05 13:22:58;;;;;;;4.20;1.00;;;18.20;49.10;;;;;;4978147;28;20060;-74
2021/04/05 13:25:51;;;;;;;3.80;0.80;;;17.90;49.40;;;;;;4976584;28;20061;-74
2021/04/05 13:28:27;;;;;;;4.05;0.90;;;18.00;49.60;;;;;;4973507;28;20050;-74